Gt Bend, New York
Current Conditions -  °F | °C
As of 8:58 PM on Thursday 18 Dec 2014 (Local Time) from KGTB Reporting Station
Freezing Drizzle Freezing Drizzle  
Wind Chill: -9°   Ceiling: 400
Heat Index: -4°   Visibility: 7mi
Dew Point: -5°   Wind: 7mph
Humidity: 91%   Direction: 350°N
Pressure: 30"   Gusts: NA
Location:  44.0344°N, 75.7193°W
Report Text: KGTB 190158Z AUTO 35006KT 7SM -FZDZ BKN004 OVC009 M04/M05 A3000 RMK AO2 RAB0104E0124FZDZB0124UPE0104 SLP168 P0000 T10411054
Loading
Personal Weather Stations






























Interactive Weather Map New forecast layout! Learn more

10-Day Weather Forecast

Advertisements
Track Severe Weather on mobile